EDT,Max TemperatureF,Mean TemperatureF,Min TemperatureF,Max Dew PointF,MeanDew PointF,Min DewpointF,Max Humidity, Mean Humidity, Min Humidity, Max Sea Level PressureIn, Mean Sea Level PressureIn, Min Sea Level PressureIn, Max VisibilityMiles, Mean VisibilityMiles, Min VisibilityMiles, Max Wind SpeedMPH, Mean Wind SpeedMPH, Max Gust SpeedMPH,PrecipitationIn, CloudCover, Events, WindDirDegrees
2013-7-1,76,66,56,59,50,42,90,67,44,30.05,30.00,29.96,10,10,7,20,9,28,0.00,3,,34
2013-7-2,66,62,58,63,58,50,93,76,58,30.07,30.05,30.02,10,6,1,13,7,21,0.70,8,Rain,28
2013-7-3,78,70,62,64,63,61,100,82,64,30.10,30.04,30.01,10,6,1,21,6,28,T,7,,184
2013-7-4,78,68,58,63,60,57,100,77,54,30.14,30.11,30.08,10,7,2,10,4,15,0.00,1,,204
2013-7-5,82,71,60,65,62,57,97,74,51,30.12,30.09,30.04,10,6,0,13,2,16,0.00,2,Fog,197
2013-7-6,80,74,68,68,67,65,90,79,67,30.10,30.06,30.01,10,10,8,15,5,18,0.00,4,,193
2013-7-7,84,76,68,71,67,64,93,78,63,30.06,30.03,29.99,10,9,7,14,7,18,T,5,Rain,214
2013-7-8,82,77,71,72,69,67,90,80,69,30.06,30.01,29.96,10,10,5,18,10,23,0.18,3,Rain-Thunderstorm,224
2013-7-9,88,79,69,75,72,66,100,87,74,30.03,29.98,29.89,10,5,0,29,6,39,0.55,5,Fog-Rain-Thunderstorm,243
2013-7-10,83,72,60,75,68,54,91,73,41,30.00,29.89,29.84,10,9,3,21,9,26,0.00,3,Thunderstorm,309
2013-7-11,79,68,57,62,55,51,90,64,34,30.09,30.06,30.01,10,10,9,17,7,21,0.00,1,,353
2013-7-12,83,69,54,58,55,52,89,63,28,30.16,30.12,30.09,10,10,10,12,3,16,0.00,0,,47
2013-7-13,85,71,57,63,60,55,90,64,40,30.18,30.15,30.13,10,10,10,15,5,23,0.00,1,,95
2013-7-14,89,78,67,69,66,63,87,64,43,30.23,30.20,30.17,10,10,10,14,7,20,0.00,1,,110
2013-7-15,88,81,73,78,73,70,90,77,60,30.29,30.26,30.23,10,10,7,16,3,22,0.01,2,Rain-Thunderstorm,75
2013-7-16,91,82,73,74,71,69,91,70,44,30.34,30.30,30.27,10,10,6,13,4,,0.00,0,,234
2013-7-17,92,83,73,73,71,70,90,69,48,30.33,30.27,30.19,10,10,8,12,4,16,0.00,1,,272
2013-7-18,92,83,74,75,72,70,91,71,48,30.19,30.11,29.99,10,9,1,30,5,36,0.63,2,Rain-Thunderstorm,206
2013-7-19,94,85,76,73,71,68,88,64,41,29.99,29.87,29.78,10,9,6,24,13,35,0.00,0,,231
2013-7-20,87,78,69,72,65,59,87,61,38,29.94,29.85,29.78,10,10,10,15,7,20,0.00,1,,327
2013-7-21,87,77,67,66,63,61,81,60,36,29.99,29.93,29.88,10,10,10,18,5,24,0.57,1,Rain,150
2013-7-22,84,76,67,67,65,64,94,76,47,29.96,29.86,29.76,10,9,1,20,6,24,0.22,5,Rain-Thunderstorm,144
2013-7-23,79,69,58,68,62,50,87,72,53,29.94,29.80,29.72,10,10,10,28,13,33,0.14,2,Rain-Thunderstorm,292
2013-7-24,74,62,50,53,49,47,89,64,36,30.07,30.03,29.97,10,10,10,17,7,25,0.00,0,,11
2013-7-25,78,66,54,57,53,50,87,65,41,30.12,30.09,30.06,10,10,10,9,3,13,0.00,1,,256
2013-7-26,76,69,61,63,58,54,88,70,43,30.08,30.01,29.90,10,10,7,21,8,28,0.02,4,Rain,207
2013-7-27,71,64,57,63,59,47,100,80,57,29.91,29.87,29.85,10,8,2,23,10,28,T,7,,279
2013-7-28,67,60,52,50,48,46,83,65,45,30.02,29.94,29.88,10,10,10,18,10,23,T,5,Rain,256
2013-7-29,72,63,54,56,53,49,89,67,44,30.21,30.11,30.02,10,10,10,16,8,22,0.00,5,,279
2013-7-30,77,65,53,60,55,50,90,68,39,30.22,30.18,30.11,10,10,10,10,4,14,T,3,,186
2013-7-31,70,66,62,66,64,60,97,89,69,30.10,30.02,29.96,10,6,1,12,6,29,0.14,7,Rain,222